createdAt,value
2023-03-16T00:01:45.872Z,2.28
2023-03-16T00:04:12.400Z,1.90
2023-03-16T00:06:38.915Z,2.38
2023-03-16T00:09:05.416Z,2.10
2023-03-16T00:11:31.925Z,1.58
2023-03-16T00:13:58.395Z,2.10
2023-03-16T00:16:24.912Z,1.58
2023-03-16T00:18:51.394Z,1.52
2023-03-16T00:21:17.940Z,1.88
2023-03-16T00:23:44.442Z,1.65
2023-03-16T00:26:11.143Z,1.98
2023-03-16T00:28:37.680Z,1.80
2023-03-16T00:31:09.690Z,1.80
2023-03-16T00:33:36.176Z,1.73
2023-03-16T00:36:04.238Z,1.52
2023-03-16T00:38:33.442Z,1.52
2023-03-16T00:41:00.132Z,1.60
2023-03-16T00:43:26.644Z,2.03
2023-03-16T00:45:58.707Z,1.58
2023-03-16T00:48:25.229Z,1.73
2023-03-16T00:50:51.708Z,1.77
2023-03-16T00:53:18.206Z,1.45
2023-03-16T00:55:44.687Z,1.45
2023-03-16T00:58:11.149Z,1.85
2023-03-16T01:00:37.656Z,1.88
2023-03-16T01:03:04.285Z,1.70
2023-03-16T01:05:30.890Z,1.80
2023-03-16T01:07:57.412Z,1.20
2023-03-16T01:10:23.892Z,1.58
2023-03-16T01:12:50.412Z,1.77
2023-03-16T01:15:16.953Z,1.38
2023-03-16T01:17:43.486Z,1.90
2023-03-16T01:20:11.441Z,1.25
2023-03-16T01:22:37.912Z,1.92
2023-03-16T01:25:04.735Z,1.52
2023-03-16T01:27:31.248Z,1.55
2023-03-16T01:29:57.828Z,1.60
2023-03-16T01:32:24.344Z,1.42
2023-03-16T01:34:50.922Z,1.92
2023-03-16T01:37:17.435Z,1.45
2023-03-16T01:39:43.914Z,1.83
2023-03-16T01:42:10.512Z,1.73
2023-03-16T01:44:57.754Z,1.67
2023-03-16T01:47:24.325Z,1.40
2023-03-16T01:49:55.431Z,1.42
2023-03-16T01:52:27.154Z,1.60
2023-03-16T01:55:03.362Z,1.80
2023-03-16T01:57:38.521Z,1.90
2023-03-16T02:00:15.491Z,1.70
2023-03-16T02:02:44.707Z,1.90
2023-03-16T02:05:17.065Z,1.55
2023-03-16T02:07:47.760Z,1.83
2023-03-16T02:10:16.593Z,1.08
2023-03-16T02:12:43.902Z,2.20
2023-03-16T02:15:11.962Z,1.75
2023-03-16T02:17:41.304Z,1.67
2023-03-16T02:20:41.803Z,1.60
2023-03-16T02:23:13.131Z,1.77
2023-03-16T02:25:48.282Z,1.52
2023-03-16T02:28:39.084Z,2.15
2023-03-16T02:31:06.738Z,1.92
2023-03-16T02:33:34.060Z,2.08
2023-03-16T02:36:00.587Z,1.10
2023-03-16T02:38:27.170Z,2.05
2023-03-16T02:41:18.969Z,1.58
2023-03-16T02:43:54.062Z,1.77
2023-03-16T02:46:23.138Z,2.25
2023-03-16T02:49:02.861Z,2.05
2023-03-16T02:51:30.588Z,2.03
2023-03-16T02:53:57.133Z,1.38
2023-03-16T02:56:23.662Z,1.33
2023-03-16T02:58:50.255Z,1.80
2023-03-16T03:01:16.804Z,1.75
2023-03-16T03:03:43.403Z,1.80
2023-03-16T03:06:10.622Z,1.85
2023-03-16T03:08:37.400Z,1.83
2023-03-16T03:11:03.952Z,2.03
2023-03-16T03:13:30.454Z,1.60
2023-03-16T03:15:57.017Z,1.77
2023-03-16T03:18:23.551Z,1.38
2023-03-16T03:20:50.015Z,1.70
2023-03-16T03:23:16.504Z,1.40
2023-03-16T03:25:43.250Z,1.60
2023-03-16T03:28:09.853Z,1.70
2023-03-16T03:30:36.437Z,1.92
2023-03-16T03:33:03.395Z,1.52
2023-03-16T03:35:30.119Z,2.10
2023-03-16T03:37:56.668Z,1.65
2023-03-16T03:40:23.154Z,2.10
2023-03-16T03:42:49.888Z,1.42
2023-03-16T03:45:16.922Z,1.58
2023-03-16T03:47:43.831Z,1.55
2023-03-16T03:50:11.886Z,1.30
2023-03-16T03:52:38.390Z,1.40
2023-03-16T03:55:05.468Z,1.98
2023-03-16T03:57:31.983Z,1.70
2023-03-16T03:59:58.473Z,1.42
2023-03-16T04:02:25.350Z,1.60
2023-03-16T04:04:52.084Z,1.80
2023-03-16T04:07:18.824Z,2.00
2023-03-16T04:09:45.323Z,1.90
2023-03-16T04:12:11.968Z,1.60
2023-03-16T04:14:38.482Z,1.70
2023-03-16T04:17:05.116Z,1.77
2023-03-16T04:19:31.840Z,1.45
2023-03-16T04:21:58.600Z,1.83
2023-03-16T04:24:25.126Z,1.63
2023-03-16T04:26:51.598Z,2.00
2023-03-16T04:29:18.135Z,1.92
2023-03-16T04:31:45.348Z,2.25
2023-03-16T04:34:12.534Z,1.50
2023-03-16T04:36:39.486Z,1.70
2023-03-16T04:39:06.272Z,1.80
2023-03-16T04:41:32.926Z,1.70
2023-03-16T04:43:59.455Z,1.80
2023-03-16T04:46:26.407Z,1.90
2023-03-16T04:48:53.743Z,2.00
2023-03-16T04:51:20.311Z,1.65
2023-03-16T04:53:46.795Z,1.98
2023-03-16T04:56:13.249Z,1.70
2023-03-16T04:58:39.756Z,1.67
2023-03-16T05:01:06.373Z,1.88
2023-03-16T05:03:32.860Z,1.70
2023-03-16T05:05:59.464Z,1.90
2023-03-16T05:08:26.038Z,1.92
2023-03-16T05:10:57.215Z,1.80
2023-03-16T05:13:23.739Z,2.28
2023-03-16T05:15:50.260Z,1.80
2023-03-16T05:18:16.786Z,1.85
2023-03-16T05:20:43.297Z,2.08
2023-03-16T05:23:09.825Z,1.90
2023-03-16T05:25:36.298Z,1.70
2023-03-16T05:28:02.856Z,1.88
2023-03-16T05:30:30.048Z,1.63
2023-03-16T05:32:56.958Z,1.95
2023-03-16T05:35:24.423Z,2.03
2023-03-16T05:37:51.017Z,1.90
2023-03-16T05:40:18.023Z,2.13
2023-03-16T05:42:49.652Z,2.28
2023-03-16T05:45:17.425Z,1.85
2023-03-16T05:47:44.346Z,1.80
2023-03-16T05:50:13.081Z,2.22
2023-03-16T05:52:40.172Z,2.05
2023-03-16T05:55:08.570Z,2.08
2023-03-16T05:57:35.323Z,1.90
2023-03-16T06:00:03.501Z,2.10
2023-03-16T06:02:30.048Z,2.05
2023-03-16T06:04:56.607Z,1.75
2023-03-16T06:07:23.173Z,1.63
2023-03-16T06:09:49.653Z,2.35
2023-03-16T06:12:16.116Z,1.80
2023-03-16T06:14:42.646Z,2.00
2023-03-16T06:17:09.203Z,1.90
2023-03-16T06:19:35.800Z,2.38
2023-03-16T06:22:02.625Z,2.13
2023-03-16T06:24:29.181Z,2.08
2023-03-16T06:26:55.712Z,1.98
2023-03-16T06:29:22.253Z,2.03
2023-03-16T06:31:48.735Z,1.92
2023-03-16T06:34:15.254Z,1.80
2023-03-16T06:36:41.836Z,2.03
2023-03-16T06:39:08.310Z,2.20
2023-03-16T06:41:34.832Z,1.90
2023-03-16T06:44:02.393Z,1.98
2023-03-16T06:46:28.896Z,2.17
2023-03-16T06:48:55.373Z,2.00
2023-03-16T06:51:21.909Z,2.05
2023-03-16T06:53:48.393Z,1.88
2023-03-16T06:56:14.910Z,1.70
2023-03-16T06:58:41.396Z,1.85
2023-03-16T07:01:07.931Z,1.70
2023-03-16T07:03:34.532Z,1.98
2023-03-16T07:06:01.050Z,1.83
2023-03-16T07:08:27.697Z,1.80
2023-03-16T07:10:54.156Z,2.30
2023-03-16T07:13:20.978Z,1.90
2023-03-16T07:15:51.080Z,1.42
2023-03-16T07:18:18.204Z,2.20
2023-03-16T07:20:44.805Z,2.30
2023-03-16T07:23:11.787Z,1.42
2023-03-16T07:25:38.736Z,1.75
2023-03-16T07:28:05.473Z,2.00
2023-03-16T07:30:32.030Z,1.52
2023-03-16T07:32:58.565Z,1.90
2023-03-16T07:35:25.140Z,1.73
2023-03-16T07:37:51.620Z,1.95
2023-03-16T07:40:18.223Z,1.35
2023-03-16T07:42:44.800Z,1.63
2023-03-16T07:45:11.796Z,1.45
2023-03-16T07:47:38.350Z,1.73
2023-03-16T07:50:05.421Z,1.60
2023-03-16T07:52:31.923Z,1.50
2023-03-16T07:54:58.429Z,1.48
2023-03-16T07:57:25.100Z,1.70
2023-03-16T07:59:51.622Z,1.65
2023-03-16T08:02:19.945Z,2.17
2023-03-16T08:04:47.131Z,2.00
2023-03-16T08:07:15.440Z,1.63
2023-03-16T08:09:41.945Z,1.98
2023-03-16T08:12:09.568Z,1.67
2023-03-16T08:14:36.467Z,1.92
2023-03-16T08:17:04.716Z,2.15
2023-03-16T08:19:31.665Z,2.05
2023-03-16T08:22:01.685Z,2.00
2023-03-16T08:24:29.264Z,2.10
2023-03-16T08:26:55.953Z,1.70
2023-03-16T08:29:22.498Z,1.63
2023-03-16T08:31:48.983Z,1.50
2023-03-16T08:34:15.461Z,1.83
2023-03-16T08:36:42.089Z,1.15
2023-03-16T08:39:09.224Z,2.13
2023-03-16T08:41:36.591Z,1.90
2023-03-16T08:44:03.303Z,1.35
2023-03-16T08:46:29.968Z,1.50
2023-03-16T08:48:56.534Z,1.98
2023-03-16T08:51:23.015Z,1.70
2023-03-16T08:53:49.472Z,1.63
2023-03-16T08:56:16.031Z,1.48
2023-03-16T08:58:42.761Z,1.60
2023-03-16T09:01:09.986Z,1.52
2023-03-16T09:03:36.490Z,1.67
2023-03-16T09:06:05.580Z,1.73
2023-03-16T09:08:32.247Z,1.60
2023-03-16T09:11:03.508Z,1.38
2023-03-16T09:13:30.395Z,1.58
2023-03-16T09:15:57.171Z,1.92
2023-03-16T09:18:24.203Z,1.45
2023-03-16T09:20:50.714Z,1.60
2023-03-16T09:23:17.236Z,1.40
2023-03-16T09:25:43.777Z,1.40
2023-03-16T09:28:10.331Z,1.35
2023-03-16T09:30:37.211Z,1.25
2023-03-16T09:33:04.364Z,1.40
2023-03-16T09:35:31.331Z,1.52
2023-03-16T09:38:06.533Z,1.33
2023-03-16T09:40:34.938Z,1.35
2023-03-16T09:43:04.302Z,1.40
2023-03-16T09:45:48.672Z,1.33
2023-03-16T09:48:16.488Z,1.30
2023-03-16T09:50:48.699Z,1.27
2023-03-16T09:53:26.268Z,1.20
2023-03-16T09:55:57.314Z,1.45
2023-03-16T09:58:24.484Z,1.40
2023-03-16T10:01:05.939Z,1.17
2023-03-16T10:03:49.658Z,1.50
2023-03-16T10:06:17.323Z,1.10
2023-03-16T10:08:49.947Z,1.30
2023-03-16T10:11:39.487Z,1.20
2023-03-16T10:14:23.476Z,1.30
2023-03-16T10:17:10.615Z,1.33
2023-03-16T10:20:02.378Z,1.42
2023-03-16T10:22:34.711Z,1.27
2023-03-16T10:25:10.100Z,0.90
2023-03-16T10:27:38.929Z,1.50
2023-03-16T10:30:28.587Z,1.13
2023-03-16T10:33:03.036Z,1.20
2023-03-16T10:35:29.702Z,1.20
2023-03-16T10:37:56.853Z,0.93
2023-03-16T10:40:23.489Z,1.20
2023-03-16T10:42:49.996Z,1.17
2023-03-16T10:45:30.186Z,1.30
2023-03-16T10:48:18.638Z,1.17
2023-03-16T10:50:55.356Z,1.08
2023-03-16T10:53:29.053Z,0.90
2023-03-16T10:56:11.600Z,1.02
2023-03-16T10:58:41.902Z,0.80
2023-03-16T11:01:17.442Z,1.02
2023-03-16T11:03:49.372Z,1.10
2023-03-16T11:06:27.566Z,1.02
2023-03-16T11:08:54.431Z,0.80
2023-03-16T11:11:30.275Z,1.10
2023-03-16T11:13:59.335Z,0.90
2023-03-16T11:16:41.515Z,0.90
2023-03-16T11:20:01.108Z,0.80
2023-03-16T11:22:28.007Z,1.20
2023-03-16T11:25:02.282Z,0.80
2023-03-16T11:27:42.011Z,0.75
2023-03-16T11:30:19.535Z,0.70
2023-03-16T11:32:51.390Z,0.90
2023-03-16T11:35:23.662Z,0.90
2023-03-16T11:38:16.196Z,0.70
2023-03-16T11:41:05.746Z,1.00
2023-03-16T11:43:47.540Z,1.00
2023-03-16T11:46:35.192Z,0.82
2023-03-16T11:49:23.833Z,0.63
2023-03-16T11:52:24.786Z,0.80
2023-03-16T11:55:01.405Z,1.05
2023-03-16T11:57:39.843Z,0.82
2023-03-16T12:00:48.199Z,0.85
2023-03-16T12:03:52.237Z,0.77
2023-03-16T12:06:38.113Z,0.80
2023-03-16T12:09:16.202Z,1.00
2023-03-16T12:12:02.302Z,0.80
2023-03-16T12:14:46.936Z,0.57
2023-03-16T12:17:31.096Z,0.70
2023-03-16T12:20:06.839Z,0.77
2023-03-16T12:23:05.510Z,0.80
2023-03-16T12:25:36.077Z,0.80
2023-03-16T12:28:06.812Z,0.80
2023-03-16T12:30:59.645Z,0.80
2023-03-16T12:33:31.738Z,0.73
2023-03-16T12:36:04.129Z,0.60
2023-03-16T12:38:40.156Z,0.68
2023-03-16T12:41:28.381Z,0.80
2023-03-16T12:44:37.327Z,0.63
2023-03-16T12:47:24.989Z,0.70
2023-03-16T12:49:51.862Z,0.93
2023-03-16T12:52:18.607Z,0.90
2023-03-16T12:54:53.886Z,0.90
2023-03-16T12:57:24.723Z,0.70
2023-03-16T12:59:57.364Z,0.75
2023-03-16T13:02:32.137Z,0.90
2023-03-16T13:05:11.852Z,0.70
2023-03-16T13:07:49.398Z,0.57
2023-03-16T13:10:17.787Z,0.75
2023-03-16T13:12:44.572Z,0.73
2023-03-16T13:15:20.030Z,0.93
2023-03-16T13:17:49.213Z,0.68
2023-03-16T13:20:36.030Z,0.70
2023-03-16T13:23:18.222Z,0.98
2023-03-16T13:25:58.676Z,0.85
2023-03-16T13:28:30.696Z,0.70
2023-03-16T13:30:57.398Z,0.80
2023-03-16T13:33:30.107Z,0.60
2023-03-16T13:35:58.716Z,0.73
2023-03-16T13:38:26.711Z,0.68
2023-03-16T13:40:56.572Z,0.95
2023-03-16T13:43:29.068Z,0.82
2023-03-16T13:45:58.462Z,0.90
2023-03-16T13:48:25.691Z,0.57
2023-03-16T13:50:53.802Z,0.80
2023-03-16T13:53:31.197Z,0.88
2023-03-16T13:56:00.210Z,0.60
2023-03-16T13:58:33.669Z,0.82
2023-03-16T14:01:04.438Z,0.77
2023-03-16T14:03:33.660Z,0.90
2023-03-16T14:06:00.197Z,0.77
2023-03-16T14:08:27.052Z,0.68
2023-03-16T14:10:55.205Z,0.80
2023-03-16T14:13:29.661Z,0.57
2023-03-16T14:16:01.749Z,0.70
2023-03-16T14:18:36.016Z,0.57
2023-03-16T14:21:25.572Z,0.80
2023-03-16T14:23:56.412Z,0.80
2023-03-16T14:26:23.566Z,0.70
2023-03-16T14:29:14.469Z,0.55
2023-03-16T14:31:41.098Z,0.70
2023-03-16T14:34:27.895Z,0.80
2023-03-16T14:37:12.373Z,1.00
2023-03-16T14:39:39.437Z,1.02
2023-03-16T14:42:14.288Z,0.70
2023-03-16T14:44:43.395Z,0.63
2023-03-16T14:47:27.547Z,0.50
2023-03-16T14:49:56.187Z,0.60
2023-03-16T14:52:33.518Z,0.50
2023-03-16T14:55:03.381Z,0.60
2023-03-16T14:57:30.100Z,0.50
2023-03-16T14:59:56.583Z,0.68
2023-03-16T15:02:32.530Z,0.70
2023-03-16T15:05:01.100Z,0.70
2023-03-16T15:07:29.892Z,0.60
2023-03-16T15:10:15.831Z,0.43
2023-03-16T15:12:43.040Z,0.80
2023-03-16T15:15:16.844Z,0.70
2023-03-16T15:17:43.914Z,0.60
2023-03-16T15:20:14.731Z,0.70
2023-03-16T15:22:42.308Z,0.70
2023-03-16T15:25:29.832Z,0.60
2023-03-16T15:27:56.445Z,0.52
2023-03-16T15:30:26.054Z,0.80
2023-03-16T15:35:20.344Z,1.00
2023-03-16T15:37:47.561Z,0.60
2023-03-16T15:40:25.261Z,0.52
2023-03-16T15:42:52.532Z,0.60
2023-03-16T15:45:21.811Z,1.00
2023-03-16T15:47:50.987Z,0.70
2023-03-16T15:50:19.745Z,0.93
2023-03-16T15:52:51.723Z,0.70
2023-03-16T15:55:22.465Z,0.82
2023-03-16T15:57:59.161Z,0.70
2023-03-16T16:00:34.031Z,0.57
2023-03-16T16:03:01.442Z,0.70
2023-03-16T16:05:28.344Z,0.73
2023-03-16T16:07:55.149Z,0.73
2023-03-16T16:10:21.947Z,0.70
2023-03-16T16:12:50.655Z,0.90
2023-03-16T16:15:18.262Z,0.65
2023-03-16T16:18:02.546Z,0.70
2023-03-16T16:20:32.687Z,0.80
2023-03-16T16:22:59.368Z,0.68
2023-03-16T16:25:31.421Z,0.70
2023-03-16T16:27:58.100Z,0.77
2023-03-16T16:30:30.935Z,0.60
2023-03-16T16:32:58.949Z,0.70
2023-03-16T16:35:28.295Z,0.68
2023-03-16T16:37:55.202Z,0.70
2023-03-16T16:40:24.386Z,0.65
2023-03-16T16:42:53.210Z,0.77
2023-03-16T16:45:21.817Z,0.75
2023-03-16T16:47:50.332Z,0.80
2023-03-16T16:50:19.047Z,0.80
2023-03-16T16:52:45.594Z,0.70
2023-03-16T16:55:12.098Z,0.68
2023-03-16T16:57:38.835Z,0.65
2023-03-16T17:00:15.226Z,0.57
2023-03-16T17:02:44.963Z,0.75
2023-03-16T17:05:27.275Z,0.85
2023-03-16T17:07:54.458Z,0.60
2023-03-16T17:10:24.340Z,0.73
2023-03-16T17:15:29.595Z,0.60
2023-03-16T17:18:13.069Z,0.70
2023-03-16T17:20:40.046Z,0.50
2023-03-16T17:23:35.775Z,0.52
2023-03-16T17:26:14.794Z,0.77
2023-03-16T17:28:45.576Z,0.80
2023-03-16T17:31:16.173Z,0.68
2023-03-16T17:33:43.381Z,0.82
2023-03-16T17:36:15.441Z,0.95
2023-03-16T17:38:42.557Z,0.70
2023-03-16T17:41:24.429Z,0.90
2023-03-16T17:43:52.352Z,0.80
2023-03-16T17:46:21.816Z,0.90
2023-03-16T17:48:49.070Z,0.57
2023-03-16T17:51:16.172Z,0.90
2023-03-16T17:53:43.599Z,0.82
2023-03-16T17:56:23.158Z,0.80
2023-03-16T17:58:52.513Z,0.70
2023-03-16T18:01:27.062Z,0.70
2023-03-16T18:03:53.645Z,0.80
2023-03-16T18:06:25.701Z,0.82
2023-03-16T18:08:52.848Z,0.90
2023-03-16T18:11:30.905Z,1.00
2023-03-16T18:13:57.587Z,0.82
2023-03-16T18:16:25.689Z,1.05
2023-03-16T18:18:58.861Z,0.90
2023-03-16T18:21:26.218Z,0.88
2023-03-16T18:23:53.813Z,1.33
2023-03-16T18:26:20.477Z,1.20
2023-03-16T18:28:47.486Z,1.23
2023-03-16T18:31:25.637Z,0.80
2023-03-16T18:33:55.855Z,1.00
2023-03-16T18:36:28.302Z,1.10
2023-03-16T18:38:55.914Z,1.05
2023-03-16T18:41:28.077Z,0.93
2023-03-16T18:43:57.583Z,1.00
2023-03-16T18:46:31.304Z,1.13
2023-03-16T18:49:00.452Z,1.00
2023-03-16T18:51:28.087Z,1.17
2023-03-16T18:53:54.844Z,1.13
2023-03-16T18:56:24.636Z,1.13
2023-03-16T18:58:51.813Z,1.35
2023-03-16T19:01:25.079Z,1.23
2023-03-16T19:03:52.850Z,1.33
2023-03-16T19:06:27.247Z,1.02
2023-03-16T19:08:54.339Z,1.33
2023-03-16T19:11:21.001Z,1.30
2023-03-16T19:13:47.740Z,1.38
2023-03-16T19:16:17.888Z,1.30
2023-03-16T19:18:45.276Z,1.48
2023-03-16T19:21:20.620Z,1.33
2023-03-16T19:24:01.488Z,1.70
2023-03-16T19:26:28.417Z,1.73
2023-03-16T19:28:55.290Z,12.05
2023-03-16T19:31:25.195Z,6.65
2023-03-16T19:33:53.030Z,4.80
2023-03-16T19:36:22.990Z,4.28
2023-03-16T19:41:34.520Z,1.52
2023-03-16T19:44:07.007Z,1.20
2023-03-16T19:46:33.661Z,1.88
2023-03-16T19:49:00.431Z,1.52
2023-03-16T19:51:27.021Z,1.63
2023-03-16T19:53:53.558Z,1.27
2023-03-16T19:56:21.776Z,1.50
2023-03-16T19:58:53.075Z,1.40
2023-03-16T20:01:32.405Z,1.25
2023-03-16T20:03:59.177Z,1.58
2023-03-16T20:06:25.737Z,1.17
2023-03-16T20:08:52.213Z,1.35
2023-03-16T20:11:27.328Z,1.33
2023-03-16T20:13:55.248Z,1.63
2023-03-16T20:16:30.228Z,1.30
2023-03-16T20:18:59.595Z,1.40
2023-03-16T20:21:26.612Z,1.42
2023-03-16T20:23:54.131Z,1.17
2023-03-16T20:26:23.743Z,1.60
2023-03-16T20:28:51.429Z,1.17
2023-03-16T20:31:21.812Z,1.40
2023-03-16T20:33:50.105Z,1.40
2023-03-16T20:36:16.725Z,0.93
2023-03-16T20:38:43.349Z,1.17
2023-03-16T20:41:25.751Z,1.33
2023-03-16T20:43:53.355Z,1.30
2023-03-16T20:46:27.379Z,1.30
2023-03-16T20:48:54.062Z,1.45
2023-03-16T20:51:21.338Z,1.30
2023-03-16T20:53:48.576Z,1.33
2023-03-16T20:56:25.743Z,1.27
2023-03-16T20:58:53.972Z,1.05
2023-03-16T21:01:22.451Z,1.30
2023-03-16T21:03:51.273Z,1.17
2023-03-16T21:06:23.833Z,1.30
2023-03-16T21:08:56.241Z,1.33
2023-03-16T21:11:26.003Z,1.50
2023-03-16T21:13:53.504Z,1.40
2023-03-16T21:16:20.700Z,1.23
2023-03-16T21:18:48.103Z,1.20
2023-03-16T21:21:17.326Z,1.60
2023-03-16T21:23:44.722Z,1.13
2023-03-16T21:26:18.005Z,1.40
2023-03-16T21:28:58.965Z,1.30
2023-03-16T21:31:27.040Z,1.38
2023-03-16T21:33:54.638Z,1.42
2023-03-16T21:36:24.084Z,1.50
2023-03-16T21:38:51.818Z,1.25
2023-03-16T21:41:18.694Z,1.60
2023-03-16T21:43:46.304Z,1.40
2023-03-16T21:46:18.533Z,1.48
2023-03-16T21:48:51.128Z,1.27
2023-03-16T21:51:20.618Z,1.45
2023-03-16T21:53:48.596Z,1.23
2023-03-16T21:56:18.348Z,1.25
2023-03-16T21:58:46.119Z,1.35
2023-03-16T22:01:32.005Z,1.27
2023-03-16T22:04:04.764Z,1.20
2023-03-16T22:06:31.947Z,1.20
2023-03-16T22:08:59.782Z,1.73
2023-03-16T22:11:28.424Z,1.70
2023-03-16T22:13:57.895Z,1.55
2023-03-16T22:16:27.478Z,1.30
2023-03-16T22:18:55.513Z,1.23
2023-03-16T22:21:27.553Z,1.15
2023-03-16T22:23:54.894Z,1.52
2023-03-16T22:26:23.192Z,1.70
2023-03-16T22:28:50.231Z,2.08
2023-03-16T22:31:19.758Z,1.23
2023-03-16T22:33:47.575Z,1.30
2023-03-16T22:36:18.413Z,1.30
2023-03-16T22:38:45.808Z,1.70
2023-03-16T22:41:16.563Z,1.65
2023-03-16T22:43:44.709Z,1.20
2023-03-16T22:46:23.869Z,1.00
2023-03-16T22:48:51.826Z,1.20
2023-03-16T22:51:28.529Z,1.25
2023-03-16T22:53:59.219Z,1.02
2023-03-16T22:56:26.240Z,1.02
2023-03-16T22:58:58.100Z,1.17
2023-03-16T23:01:33.256Z,1.27
2023-03-16T23:04:00.446Z,1.17
2023-03-16T23:06:29.356Z,1.23
2023-03-16T23:08:56.287Z,1.05
2023-03-16T23:11:28.401Z,0.90
2023-03-16T23:13:55.404Z,1.05
2023-03-16T23:16:35.156Z,1.30
2023-03-16T23:19:03.240Z,1.58
2023-03-16T23:21:30.223Z,1.10
2023-03-16T23:24:03.497Z,1.08
2023-03-16T23:26:30.826Z,1.00
2023-03-16T23:28:58.177Z,1.00
2023-03-16T23:31:26.322Z,1.10
2023-03-16T23:33:53.080Z,1.15
2023-03-16T23:36:22.307Z,1.50
2023-03-16T23:38:50.245Z,1.13
2023-03-16T23:41:20.457Z,0.95
2023-03-16T23:43:48.128Z,1.10
2023-03-16T23:46:18.249Z,1.38
2023-03-16T23:48:46.144Z,1.00
2023-03-16T23:51:20.285Z,1.20
2023-03-16T23:53:48.847Z,1.50
2023-03-16T23:56:15.906Z,1.33
2023-03-16T23:58:42.507Z,1.00
